KOGD/OGD METAR and TAF weather

Enter ICAO airport designator
Station Type Date Time Source
KOGD METAR 2020/02/28 08:53 UTC NOAA

KOGD 280853Z AUTO 17008KT 10SM CLR 00/M08 A3041 RMK AO2 SLP297 T00001083 58003


Station Type Date Time Source
KOGD Decoded METAR 2020/02/28 08:53 UTC NOAA

OGDEN-HINCKLEY AIRPORT, UT, United States (KOGD) 41-12N 112-01W 1353M
Feb 28, 2020 - 03:53 AM EST / 2020.02.28 0853 UTC
Wind: from the S (170 degrees) at 9 MPH (8 KT):0
Visibility: 10 mile(s):0
Sky conditions: clear
Temperature: 32.0 F (0.0 C)
Windchill: 24 F (-4 C):1
Dew Point: 17.1 F (-8.3 C)
Relative Humidity: 53%
Pressure (altimeter): 30.41 in. Hg (1029 hPa)
Pressure tendency: 0.01 inches (0.3 hPa) lower than three hours ago
ob: KOGD 280853Z AUTO 17008KT 10SM CLR 00/M08 A3041 RMK AO2 SLP297 T00001083 58003
cycle: 9

Station Type Date Time Source
KOGD TAF 2020/02/28 06:22 UTC NOAA

TAF KOGD 280520Z 2806/2906 VRB05KT P6SM SKC

Example: see airport list